Time;durP1;ratioP1;P1;durP2;ratioP2;P2;SDS_P1;SDS_P2;PMS_P1;PMS_P2;Temp;Humidity;BMP_temperature;BMP_pressure;BME280_temperature;BME280_humidity;BME280_pressure;Samples;Min_cycle;Max_cycle;Signal;HPM_P1;HPM_P2
2021/01/15 13:49:41;;;;;;;10.75;4.47;;;;;;;-7.01;59.49;99728.94;1677377;82;21280;-77
2021/01/15 13:52:09;;;;;;;11.68;4.33;;;;;;;-7.00;59.73;99724.84;1683557;84;21653;-75
2021/01/15 13:54:36;;;;;;;9.18;3.52;;;;;;;-6.96;59.87;99725.02;1674647;84;21194;-76
2021/01/15 13:57:04;;;;;;;11.35;3.45;;;;;;;-6.91;59.81;99720.70;1697220;84;21473;-78
2021/01/15 13:59:32;;;;;;;9.15;3.25;;;;;;;-6.85;59.84;99741.59;1675628;84;21823;-71
2021/01/15 14:01:59;;;;;;;13.78;4.85;;;;;;;-6.83;59.65;99732.55;1690677;83;21197;-72
2021/01/15 14:04:27;;;;;;;8.33;3.65;;;;;;;-6.80;59.86;99732.81;1691274;84;21609;-74
2021/01/15 14:06:54;;;;;;;14.65;4.00;;;;;;;-6.71;59.82;99749.02;1673237;85;21190;-76
2021/01/15 14:09:22;;;;;;;10.23;4.47;;;;;;;-6.66;59.10;99738.52;1678138;84;21178;-79
2021/01/15 14:11:53;;;;;;;12.00;4.08;;;;;;;-6.68;59.16;99746.62;1655455;85;21650;-79
2021/01/15 14:14:22;;;;;;;12.95;4.70;;;;;;;-6.62;59.19;99751.53;1674782;85;21082;-80
2021/01/15 14:16:50;;;;;;;12.03;4.05;;;;;;;-6.58;59.38;99759.69;1623426;86;21132;-72
2021/01/15 14:19:18;;;;;;;13.48;4.95;;;;;;;-6.65;58.85;99760.21;1627653;86;21083;-75
2021/01/15 14:21:46;;;;;;;11.53;5.28;;;;;;;-6.79;58.93;99762.00;1625374;86;21136;-76
2021/01/15 14:24:14;;;;;;;13.15;4.33;;;;;;;-6.90;59.16;99759.21;1644912;85;21107;-74
2021/01/15 14:26:41;;;;;;;14.93;5.40;;;;;;;-6.95;59.32;99760.48;1657081;85;21108;-75
2021/01/15 14:29:09;;;;;;;10.28;4.15;;;;;;;-7.00;59.49;99750.62;1634402;87;21112;-76
2021/01/15 14:31:39;;;;;;;8.90;3.60;;;;;;;-7.00;59.09;99760.78;1634671;87;21100;-75
2021/01/15 14:34:07;;;;;;;12.47;4.87;;;;;;;-7.04;58.88;99757.48;1675048;84;21629;-74
2021/01/15 14:36:42;;;;;;;11.38;3.95;;;;;;;-7.06;58.95;99759.39;1675693;84;21265;-81
2021/01/15 14:39:10;;;;;;;9.25;3.37;;;;;;;-7.05;58.89;99763.75;1647054;85;21101;-74
2021/01/15 14:41:44;;;;;;;9.30;3.25;;;;;;;-7.14;58.74;99762.19;1665235;85;21068;-68
2021/01/15 14:44:13;;;;;;;12.43;4.78;;;;;;;-7.23;58.89;99770.75;1646047;85;21086;-76
2021/01/15 14:46:44;;;;;;;12.65;5.00;;;;;;;-7.30;59.15;99765.45;1619966;87;21685;-73
2021/01/15 14:49:13;;;;;;;13.10;4.58;;;;;;;-7.31;59.43;99775.72;1645289;86;21128;-79
2021/01/15 14:51:43;;;;;;;12.73;4.67;;;;;;;-7.31;59.65;99770.39;1634623;87;21234;-74
2021/01/15 14:54:11;;;;;;;16.00;5.60;;;;;;;-7.25;60.02;99780.16;1682851;84;21067;-76
2021/01/15 14:56:39;;;;;;;14.23;5.85;;;;;;;-7.17;60.21;99783.64;1682586;84;21501;-75
2021/01/15 14:59:10;;;;;;;13.80;5.40;;;;;;;-7.09;60.19;99780.03;1680634;84;21096;-71
2021/01/15 15:01:42;;;;;;;18.15;6.65;;;;;;;-6.98;60.21;99788.16;1654866;85;21703;-67
2021/01/15 15:04:10;;;;;;;18.07;6.50;;;;;;;-6.97;59.84;99781.88;1683106;83;21035;-67
2021/01/15 15:06:38;;;;;;;15.95;6.40;;;;;;;-7.00;59.76;99786.08;1680173;84;21126;-68
2021/01/15 15:09:07;;;;;;;17.77;5.62;;;;;;;-7.02;59.93;99785.33;1680102;84;21735;-69
2021/01/15 15:11:35;;;;;;;17.62;5.62;;;;;;;-7.04;59.78;99781.91;1684359;84;21093;-67
2021/01/15 15:14:04;;;;;;;14.80;5.37;;;;;;;-7.05;59.57;99781.53;1685841;84;21775;-67
2021/01/15 15:16:32;;;;;;;17.90;5.45;;;;;;;-7.14;59.74;99775.49;1672043;85;21709;-67
2021/01/15 15:19:00;;;;;;;21.45;6.12;;;;;;;-7.20;59.92;99774.53;1662644;85;21095;-69
2021/01/15 15:21:28;;;;;;;20.57;6.72;;;;;;;-7.25;60.19;99783.30;1683549;83;21844;-69
2021/01/15 15:23:55;;;;;;;14.35;5.35;;;;;;;-7.23;60.20;99782.72;1651894;86;21135;-73
2021/01/15 15:26:23;;;;;;;15.43;5.45;;;;;;;-7.32;60.00;99788.17;1685266;84;21522;-70
2021/01/15 15:28:52;;;;;;;10.58;3.62;;;;;;;-7.57;60.13;99774.27;1693683;83;21650;-72
2021/01/15 15:31:20;;;;;;;14.15;4.72;;;;;;;-7.70;60.54;99784.84;1682541;85;21075;-71
2021/01/15 15:33:48;;;;;;;10.43;3.95;;;;;;;-7.80;62.33;99788.19;1657210;85;21074;-71
2021/01/15 15:36:18;;;;;;;15.80;5.95;;;;;;;-7.79;63.21;99789.42;1682247;83;21482;-72
2021/01/15 15:38:49;;;;;;;14.58;5.40;;;;;;;-7.76;63.05;99791.03;1683875;83;21044;-71
2021/01/15 15:41:18;;;;;;;13.98;5.20;;;;;;;-7.73;61.63;99792.16;1681352;83;21297;-72
2021/01/15 15:43:46;;;;;;;12.82;5.33;;;;;;;-7.81;61.62;99801.92;1684759;85;21670;-73
2021/01/15 15:46:18;;;;;;;10.03;4.17;;;;;;;-7.82;61.15;99801.55;1685818;84;21750;-67
2021/01/15 15:48:48;;;;;;;11.57;4.20;;;;;;;-7.86;60.72;99800.03;1681241;84;21270;-69
2021/01/15 15:51:19;;;;;;;21.73;7.40;;;;;;;-7.88;60.41;99802.41;1676021;84;21931;-72
2021/01/15 15:53:48;;;;;;;20.02;6.90;;;;;;;-7.85;60.48;99799.55;1660939;85;21561;-71
2021/01/15 15:56:19;;;;;;;13.00;4.78;;;;;;;-7.79;60.08;99815.16;1664765;84;21103;-73
2021/01/15 15:58:46;;;;;;;12.37;4.40;;;;;;;-7.82;59.94;99813.98;1679356;84;21798;-67
2021/01/15 16:01:14;;;;;;;15.10;4.67;;;;;;;-7.80;59.88;99818.29;1677106;84;21103;-64
2021/01/15 16:03:42;;;;;;;14.50;5.80;;;;;;;-7.72;59.68;99814.67;1677040;84;21226;-65
2021/01/15 16:06:10;;;;;;;16.57;6.08;;;;;;;-7.75;59.49;99819.33;1677244;84;21746;-64
2021/01/15 16:08:38;;;;;;;12.35;5.17;;;;;;;-7.82;59.27;99824.14;1677209;84;21281;-63
2021/01/15 16:11:07;;;;;;;12.37;4.37;;;;;;;-7.90;59.10;99818.92;1658960;84;21144;-68
2021/01/15 16:13:37;;;;;;;8.00;3.30;;;;;;;-7.96;59.26;99824.63;1685549;83;21344;-71
2021/01/15 16:16:07;;;;;;;10.38;4.12;;;;;;;-7.96;59.46;99828.61;1677317;84;21079;-66
2021/01/15 16:18:35;;;;;;;12.70;4.75;;;;;;;-7.95;59.65;99838.30;1662565;85;21104;-66
2021/01/15 16:21:03;;;;;;;12.15;4.60;;;;;;;-7.97;58.93;99838.86;1642634;87;21207;-66
2021/01/15 16:23:30;;;;;;;10.68;4.30;;;;;;;-7.99;58.91;99845.12;1669541;85;21301;-71
2021/01/15 16:25:57;;;;;;;15.30;5.50;;;;;;;-7.97;58.85;99837.53;1675656;85;21335;-71
2021/01/15 16:28:24;;;;;;;13.83;5.17;;;;;;;-8.02;58.68;99849.30;1687598;84;21095;-72
2021/01/15 16:30:52;;;;;;;10.00;4.10;;;;;;;-8.08;58.88;99836.39;1705683;84;21206;-72
2021/01/15 16:33:21;;;;;;;9.98;3.92;;;;;;;-8.05;58.42;99830.89;1682460;85;21827;-68
2021/01/15 16:35:48;;;;;;;13.72;5.58;;;;;;;-8.11;58.50;99830.41;1681627;84;21165;-70
2021/01/15 16:38:21;;;;;;;15.15;4.92;;;;;;;-8.10;58.67;99832.97;1625914;85;21097;-64
2021/01/15 16:40:52;;;;;;;12.40;4.70;;;;;;;-8.08;58.67;99831.55;1613507;88;21521;-67
2021/01/15 16:43:19;;;;;;;10.63;3.87;;;;;;;-8.10;58.64;99836.96;1591876;89;21427;-68
2021/01/15 16:45:46;;;;;;;19.20;6.03;;;;;;;-8.07;58.75;99832.79;1611795;88;21118;-68
2021/01/15 16:48:14;;;;;;;13.48;4.65;;;;;;;-8.11;58.45;99839.23;1591817;90;21062;-66
2021/01/15 16:50:42;;;;;;;12.18;4.00;;;;;;;-8.27;58.44;99841.13;1613205;87;21297;-68
2021/01/15 16:53:10;;;;;;;13.85;4.62;;;;;;;-8.35;58.56;99846.08;1604294;88;21105;-69
2021/01/15 16:55:40;;;;;;;17.05;5.22;;;;;;;-8.39;58.66;99843.22;1594936;88;21335;-66
2021/01/15 16:58:10;;;;;;;13.03;4.72;;;;;;;-8.40;58.93;99841.52;1608917;87;21772;-67
2021/01/15 17:00:39;;;;;;;13.15;4.50;;;;;;;-8.35;59.01;99842.09;1621874;87;21069;-71
2021/01/15 17:03:06;;;;;;;10.55;4.05;;;;;;;-8.33;59.02;99848.17;1631812;88;21120;-69
2021/01/15 17:05:35;;;;;;;15.23;5.25;;;;;;;-8.35;58.97;99853.57;1655616;85;21083;-66
2021/01/15 17:08:03;;;;;;;16.35;5.83;;;;;;;-8.38;58.91;99856.41;1648529;85;21103;-70
2021/01/15 17:10:31;;;;;;;16.57;5.75;;;;;;;-8.39;59.08;99847.21;1649569;85;21111;-68
2021/01/15 17:13:01;;;;;;;12.47;4.37;;;;;;;-8.34;59.08;99847.31;1648193;85;21302;-66
2021/01/15 17:15:28;;;;;;;15.85;5.37;;;;;;;-8.32;58.95;99851.17;1648233;87;21366;-63
2021/01/15 17:17:56;;;;;;;14.93;5.42;;;;;;;-8.36;59.01;99851.86;1648918;86;21114;-68
2021/01/15 17:20:24;;;;;;;17.05;6.00;;;;;;;-8.43;59.18;99858.48;1648553;85;21306;-69
2021/01/15 17:22:51;;;;;;;17.73;5.42;;;;;;;-8.41;59.41;99851.76;1648574;85;21377;-70
2021/01/15 17:25:21;;;;;;;11.30;4.47;;;;;;;-8.31;59.79;99859.52;1648518;85;21357;-70
2021/01/15 17:27:51;;;;;;;14.70;5.10;;;;;;;-8.17;59.74;99869.31;1650171;87;21224;-69
2021/01/15 17:30:19;;;;;;;21.57;7.37;;;;;;;-8.19;59.39;99857.45;1648578;85;21135;-67
2021/01/15 17:32:55;;;;;;;18.37;6.70;;;;;;;-8.31;59.47;99858.20;1648550;87;21060;-64
2021/01/15 17:35:24;;;;;;;12.80;4.60;;;;;;;-8.38;59.79;99871.50;1648492;86;21891;-67
2021/01/15 17:37:52;;;;;;;15.13;5.65;;;;;;;-8.41;59.95;99867.69;1648438;85;21320;-65
2021/01/15 17:40:22;;;;;;;12.85;4.72;;;;;;;-8.50;60.26;99873.52;1648628;87;21294;-64
2021/01/15 17:42:50;;;;;;;10.75;4.92;;;;;;;-8.51;60.65;99875.80;1648632;85;21329;-69
2021/01/15 17:45:19;;;;;;;11.22;4.47;;;;;;;-8.45;60.91;99868.35;1649188;85;21424;-67
2021/01/15 17:47:51;;;;;;;10.35;4.12;;;;;;;-8.35;60.83;99864.20;1648615;85;21859;-68
2021/01/15 17:50:20;;;;;;;15.40;5.62;;;;;;;-8.26;60.74;99862.76;1652052;85;21102;-69
2021/01/15 17:53:07;;;;;;;14.93;7.12;;;;;;;-8.22;60.60;99853.66;1620137;87;21075;-63
2021/01/15 17:55:37;;;;;;;12.70;5.25;;;;;;;-8.17;60.66;99863.53;1657091;86;21755;-64
2021/01/15 17:58:04;;;;;;;14.60;5.15;;;;;;;-8.10;60.70;99859.55;1657038;86;21801;-64
2021/01/15 18:00:32;;;;;;;16.12;5.55;;;;;;;-8.02;60.53;99862.59;1656961;85;21443;-67
2021/01/15 18:02:59;;;;;;;19.62;6.90;;;;;;;-7.97;60.43;99854.34;1657040;86;21851;-65
2021/01/15 18:05:31;;;;;;;21.95;7.22;;;;;;;-7.99;60.24;99845.12;1657085;86;21077;-64
2021/01/15 18:07:58;;;;;;;21.68;7.10;;;;;;;-8.06;60.31;99854.43;1627120;88;21119;-64
2021/01/15 18:10:27;;;;;;;23.73;8.03;;;;;;;-8.17;60.31;99860.88;1656996;86;21138;-64
2021/01/15 18:12:55;;;;;;;16.35;5.75;;;;;;;-8.24;60.54;99856.02;1626884;86;21342;-64
2021/01/15 18:15:22;;;;;;;18.30;5.92;;;;;;;-8.25;60.67;99855.17;1615299;88;21289;-66
2021/01/15 18:17:49;;;;;;;20.43;7.50;;;;;;;-8.28;60.66;99854.03;1592187;87;21111;-64
2021/01/15 18:20:18;;;;;;;18.95;6.22;;;;;;;-8.31;60.85;99863.03;1654159;85;21094;-66
2021/01/15 18:22:46;;;;;;;16.23;5.70;;;;;;;-8.33;60.86;99857.47;1685789;83;21328;-64
2021/01/15 18:25:14;;;;;;;23.20;6.67;;;;;;;-8.38;61.05;99852.91;1650052;85;21338;-64
2021/01/15 18:27:42;;;;;;;18.55;6.08;;;;;;;-8.39;61.04;99859.16;1613247;87;21276;-64
2021/01/15 18:30:13;;;;;;;14.25;5.47;;;;;;;-8.39;61.22;99852.52;1634805;86;21075;-65
2021/01/15 18:32:41;;;;;;;13.98;4.53;;;;;;;-8.42;61.06;99857.55;1634381;86;21893;-66
2021/01/15 18:35:09;;;;;;;14.70;5.03;;;;;;;-8.51;61.08;99857.20;1605054;87;21352;-65
2021/01/15 18:37:40;;;;;;;24.00;7.55;;;;;;;-8.52;61.15;99866.12;1634809;87;21844;-65
2021/01/15 18:40:09;;;;;;;29.95;7.47;;;;;;;-8.54;61.29;99873.31;1634750;87;21134;-65
2021/01/15 18:42:40;;;;;;;24.40;6.50;;;;;;;-8.45;61.61;99864.37;1634698;86;21035;-66
2021/01/15 18:45:10;;;;;;;19.50;6.28;;;;;;;-8.35;61.54;99864.20;1635142;87;21316;-66
2021/01/15 18:47:42;;;;;;;28.98;7.20;;;;;;;-8.27;61.36;99854.41;1638900;87;21329;-64
2021/01/15 18:50:19;;;;;;;16.25;5.60;;;;;;;-8.26;61.29;99862.76;1631133;87;21799;-65
2021/01/15 18:52:47;;;;;;;12.28;4.40;;;;;;;-8.19;61.33;99865.42;1624506;87;21843;-64
2021/01/15 18:55:14;;;;;;;21.55;6.45;;;;;;;-8.17;60.99;99865.33;1624303;87;21322;-64
2021/01/15 18:57:48;;;;;;;37.58;8.33;;;;;;;-8.16;61.01;99862.58;1624241;88;21275;-63
2021/01/15 19:00:16;;;;;;;30.52;6.92;;;;;;;-8.08;61.01;99868.76;1624398;87;21263;-65
2021/01/15 19:02:44;;;;;;;25.10;7.28;;;;;;;-8.07;60.78;99862.02;1629554;88;21341;-63
2021/01/15 19:05:12;;;;;;;24.05;5.62;;;;;;;-8.07;60.68;99858.51;1629558;88;21322;-65
2021/01/15 19:07:40;;;;;;;19.02;6.47;;;;;;;-8.06;60.72;99857.56;1630803;86;21361;-65
2021/01/15 19:10:08;;;;;;;18.87;6.47;;;;;;;-8.07;60.67;99859.84;1631098;88;21349;-66
2021/01/15 19:12:36;;;;;;;16.17;5.22;;;;;;;-8.06;60.83;99865.06;1631715;86;21272;-65
2021/01/15 19:15:05;;;;;;;15.18;6.17;;;;;;;-8.00;60.84;99868.67;1643925;86;21323;-65
2021/01/15 19:17:33;;;;;;;18.62;6.33;;;;;;;-7.99;61.04;99865.06;1643483;85;21091;-65
2021/01/15 19:20:01;;;;;;;15.68;5.83;;;;;;;-7.95;61.07;99867.53;1617650;88;21365;-64
2021/01/15 19:22:28;;;;;;;18.00;5.95;;;;;;;-7.93;61.40;99865.16;1646167;87;21302;-65
2021/01/15 19:24:56;;;;;;;13.68;4.58;;;;;;;-7.86;61.55;99865.64;1629649;86;21285;-63
2021/01/15 19:27:23;;;;;;;20.05;6.95;;;;;;;-7.78;61.42;99877.55;1674452;84;21328;-62
2021/01/15 19:29:51;;;;;;;14.03;4.60;;;;;;;-7.87;61.02;99870.58;1656343;85;21782;-63
2021/01/15 19:32:18;;;;;;;15.32;5.65;;;;;;;-8.00;61.22;99870.48;1644547;85;21349;-66
2021/01/15 19:34:45;;;;;;;17.70;5.58;;;;;;;-8.05;61.52;99864.11;1644593;87;21289;-64
2021/01/15 19:37:13;;;;;;;17.55;6.17;;;;;;;-8.12;61.52;99857.46;1645241;87;21093;-64
2021/01/15 19:39:41;;;;;;;18.20;6.75;;;;;;;-8.11;61.99;99855.19;1614945;88;21365;-64
2021/01/15 19:42:08;;;;;;;19.07;6.05;;;;;;;-8.00;62.20;99855.38;1613104;87;21580;-63
2021/01/15 19:44:36;;;;;;;15.08;5.37;;;;;;;-7.91;62.03;99855.29;1641329;86;21722;-64
2021/01/15 19:47:03;;;;;;;17.85;5.35;;;;;;;-7.95;62.07;99861.74;1613445;87;21467;-63
2021/01/15 19:49:31;;;;;;;18.37;5.97;;;;;;;-7.96;62.27;99864.50;1634538;86;21100;-64
2021/01/15 19:51:59;;;;;;;19.42;5.85;;;;;;;-7.94;62.35;99857.28;1622675;87;21230;-64
2021/01/15 19:54:26;;;;;;;16.73;5.15;;;;;;;-7.87;62.48;99855.95;1681509;84;21298;-64
2021/01/15 19:56:53;;;;;;;14.83;4.75;;;;;;;-7.84;62.50;99855.77;1682931;83;21082;-63
2021/01/15 19:59:21;;;;;;;18.30;6.05;;;;;;;-7.82;62.37;99855.19;1684278;85;21422;-64
2021/01/15 20:01:48;;;;;;;13.55;5.50;;;;;;;-7.86;62.49;99858.99;1684413;83;21086;-63
2021/01/15 20:04:16;;;;;;;16.48;5.62;;;;;;;-7.80;62.78;99867.48;1653131;85;21791;-64
2021/01/15 20:06:44;;;;;;;15.50;5.83;;;;;;;-7.66;62.61;99866.62;1682757;84;21333;-63
2021/01/15 20:09:12;;;;;;;12.78;5.33;;;;;;;-7.63;62.35;99858.45;1682766;85;21970;-63
2021/01/15 20:11:40;;;;;;;14.93;5.92;;;;;;;-7.57;62.34;99855.40;1651157;86;21103;-64
2021/01/15 20:14:07;;;;;;;15.40;5.35;;;;;;;-7.49;62.28;99855.77;1680128;83;21285;-64
2021/01/15 20:16:35;;;;;;;17.40;6.08;;;;;;;-7.37;62.25;99864.77;1686123;83;21297;-64
2021/01/15 20:19:02;;;;;;;12.68;5.53;;;;;;;-7.28;61.95;99863.33;1681543;84;21290;-63
2021/01/15 20:21:29;;;;;;;14.83;5.05;;;;;;;-7.28;61.69;99864.66;1653686;86;21179;-63
2021/01/15 20:23:57;;;;;;;15.08;5.30;;;;;;;-7.31;61.49;99860.87;1684734;83;21238;-66
2021/01/15 20:26:24;;;;;;;13.93;5.35;;;;;;;-7.28;61.52;99857.53;1683620;85;22187;-64
2021/01/15 20:28:52;;;;;;;13.22;4.55;;;;;;;-7.28;61.19;99862.00;1684008;83;21368;-64
2021/01/15 20:31:19;;;;;;;13.20;5.60;;;;;;;-7.32;61.00;99866.66;1653109;86;21072;-63
2021/01/15 20:33:47;;;;;;;13.65;5.62;;;;;;;-7.42;61.02;99858.42;1651027;85;21218;-64
2021/01/15 20:36:15;;;;;;;14.55;5.42;;;;;;;-7.44;61.15;99860.32;1650778;85;21255;-64
2021/01/15 20:38:55;;;;;;;11.03;5.28;;;;;;;-7.46;61.11;99853.39;1683837;84;21413;-63
2021/01/15 20:41:22;;;;;;;14.10;5.72;;;;;;;-7.47;61.27;99856.52;1683476;85;21124;-63
2021/01/15 20:43:50;;;;;;;13.30;5.25;;;;;;;-7.47;61.52;99859.19;1635308;86;21284;-64
2021/01/15 20:46:17;;;;;;;10.72;4.72;;;;;;;-7.42;61.39;99860.22;1682568;84;21298;-64
2021/01/15 20:48:53;;;;;;;11.40;4.97;;;;;;;-7.37;61.17;99856.80;1683829;85;21082;-64
2021/01/15 20:51:22;;;;;;;;;;;;;;;-7.40;60.95;99848.53;1650260;86;21340;-64
2021/01/15 20:53:53;;;;;;;12.82;4.67;;;;;;;-7.40;60.94;99855.18;1645358;85;20223;-64
2021/01/15 20:56:20;;;;;;;10.68;4.50;;;;;;;-7.44;61.03;99849.67;1645145;86;21749;-64
2021/01/15 20:58:47;;;;;;;14.68;5.20;;;;;;;-7.41;61.00;99847.30;1645188;87;21449;-64
2021/01/15 21:01:16;;;;;;;13.40;4.87;;;;;;;-7.32;61.16;99857.83;1645251;87;21390;-64
2021/01/15 21:03:44;;;;;;;12.45;4.85;;;;;;;-7.21;60.94;99852.67;1645174;87;21405;-64
2021/01/15 21:06:12;;;;;;;11.08;4.00;;;;;;;-7.17;60.52;99852.84;1645197;85;21152;-64
2021/01/15 21:08:40;;;;;;;12.07;4.53;;;;;;;-7.21;60.15;99857.52;1645186;87;21331;-64
2021/01/15 21:11:07;;;;;;;9.85;4.00;;;;;;;-7.26;60.31;99850.78;1645100;87;21331;-64
2021/01/15 21:13:35;;;;;;;13.48;4.85;;;;;;;-7.24;60.16;99850.20;1645256;87;21318;-64
2021/01/15 21:16:03;;;;;;;12.50;5.22;;;;;;;-7.25;60.06;99851.16;1645285;87;21088;-63
2021/01/15 21:18:30;;;;;;;9.88;3.92;;;;;;;-7.24;60.22;99856.86;1645288;87;21223;-63
2021/01/15 21:20:58;;;;;;;13.08;4.90;;;;;;;-7.23;59.84;99843.92;1645191;87;21273;-63
2021/01/15 21:23:25;;;;;;;10.72;4.10;;;;;;;-7.24;59.92;99847.55;1645228;86;21099;-63
2021/01/15 21:25:52;;;;;;;13.53;4.80;;;;;;;-7.20;59.61;99835.75;1645266;87;21414;-64
2021/01/15 21:28:20;;;;;;;13.20;5.22;;;;;;;-7.27;59.44;99841.95;1645254;87;21318;-66
2021/01/15 21:30:48;;;;;;;13.28;4.65;;;;;;;-7.27;59.57;99841.95;1645554;85;21240;-64
2021/01/15 21:33:15;;;;;;;14.63;5.33;;;;;;;-7.24;59.46;99831.58;1645216;86;21242;-65
2021/01/15 21:35:42;;;;;;;13.18;4.97;;;;;;;-7.25;59.37;99829.88;1645234;87;21343;-67
2021/01/15 21:38:11;;;;;;;11.22;4.22;;;;;;;-7.23;59.42;99842.13;1645294;85;21698;-64
2021/01/15 21:40:39;;;;;;;10.13;4.30;;;;;;;-7.19;59.51;99830.33;1645280;87;21099;-65
2021/01/15 21:43:07;;;;;;;12.55;4.72;;;;;;;-7.15;59.23;99829.20;1645223;87;21363;-64
2021/01/15 21:45:35;;;;;;;10.13;4.55;;;;;;;-7.19;59.18;99829.47;1645267;86;21084;-63
2021/01/15 21:48:03;;;;;;;10.13;4.15;;;;;;;-7.22;59.18;99837.66;1645662;86;21421;-63
2021/01/15 21:50:30;;;;;;;9.73;4.17;;;;;;;-7.20;59.43;99835.75;1648109;86;21089;-64
2021/01/15 21:52:59;;;;;;;9.48;4.12;;;;;;;-7.12;59.50;99842.31;1631815;86;21892;-65
2021/01/15 21:55:27;;;;;;;14.23;4.65;;;;;;;-7.11;59.16;99841.36;1655645;86;21466;-63
2021/01/15 21:57:56;;;;;;;13.22;4.83;;;;;;;-7.17;59.10;99837.73;1660261;85;21352;-64
2021/01/15 22:00:29;;;;;;;10.70;4.42;;;;;;;-7.22;59.29;99839.84;1660245;85;21756;-64
2021/01/15 22:02:58;;;;;;;10.50;4.75;;;;;;;-7.17;59.45;99832.89;1660294;85;21335;-64
2021/01/15 22:05:26;;;;;;;12.35;4.72;;;;;;;-7.16;59.27;99838.11;1659806;86;21357;-63
2021/01/15 22:08:13;;;;;;;10.90;4.20;;;;;;;-7.14;59.44;99841.56;1660281;86;21742;-64
2021/01/15 22:10:43;;;;;;;13.25;5.05;;;;;;;-7.09;59.53;99837.27;1660210;85;21232;-64
2021/01/15 22:13:17;;;;;;;15.55;4.42;;;;;;;-7.07;59.36;99840.68;1660098;86;21058;-64
2021/01/15 22:15:45;;;;;;;11.12;4.37;;;;;;;-7.07;59.37;99847.34;1660227;86;21316;-64
2021/01/15 22:18:13;;;;;;;12.65;4.30;;;;;;;-7.10;59.11;99847.53;1660232;85;21271;-65
2021/01/15 22:20:43;;;;;;;9.78;4.12;;;;;;;-7.16;59.31;99847.42;1657404;85;21082;-65
2021/01/15 22:23:13;;;;;;;13.22;5.22;;;;;;;-7.08;59.56;99848.29;1660201;86;21245;-64
2021/01/15 22:25:41;;;;;;;14.95;4.85;;;;;;;-6.96;59.45;99834.66;1660179;85;21089;-64
2021/01/15 22:28:10;;;;;;;12.00;4.05;;;;;;;-6.92;59.35;99845.00;1660183;85;21343;-65
2021/01/15 22:30:39;;;;;;;12.73;4.42;;;;;;;-6.89;59.34;99836.81;1660224;86;21126;-65
2021/01/15 22:33:09;;;;;;;11.10;4.58;;;;;;;-6.86;59.32;99839.74;1660182;85;21335;-64
2021/01/15 22:35:37;;;;;;;14.85;5.55;;;;;;;-6.83;59.18;99843.53;1660175;85;21046;-64
2021/01/15 22:38:25;;;;;;;12.28;4.55;;;;;;;-6.90;59.27;99842.23;1660156;85;21793;-64
2021/01/15 22:40:58;;;;;;;20.25;5.70;;;;;;;-6.97;59.01;99843.59;1660303;85;21344;-64
2021/01/15 22:43:26;;;;;;;19.30;5.70;;;;;;;-7.14;59.35;99850.02;1660172;86;21340;-64
2021/01/15 22:45:54;;;;;;;15.05;4.58;;;;;;;-7.12;59.76;99846.78;1660102;85;21356;-65
2021/01/15 22:48:24;;;;;;;14.68;5.10;;;;;;;-7.08;59.62;99844.30;1660172;85;21078;-63
2021/01/15 22:50:57;;;;;;;19.87;6.20;;;;;;;-7.21;59.72;99836.70;1659863;85;21352;-64
2021/01/15 22:53:31;;;;;;;21.60;5.53;;;;;;;-7.29;59.92;99839.86;1653924;85;21486;-64
2021/01/15 22:56:00;;;;;;;15.98;6.00;;;;;;;-7.23;60.19;99831.48;1644482;86;21324;-65
2021/01/15 22:58:28;;;;;;;12.30;4.67;;;;;;;-7.17;60.17;99840.87;1653639;86;21351;-65
2021/01/15 23:00:56;;;;;;;12.50;5.25;;;;;;;-7.24;60.14;99847.06;1644444;86;21395;-63
2021/01/15 23:03:26;;;;;;;14.95;5.53;;;;;;;-7.25;60.41;99843.17;1653690;85;21342;-64
2021/01/15 23:05:55;;;;;;;15.48;5.75;;;;;;;-7.20;60.61;99850.38;1644562;86;21470;-64
2021/01/15 23:08:23;;;;;;;12.85;5.00;;;;;;;-7.17;60.62;99849.70;1653822;85;21309;-63
2021/01/15 23:10:51;;;;;;;15.25;5.53;;;;;;;-7.13;60.87;99843.27;1644624;86;21106;-64
2021/01/15 23:13:20;;;;;;;14.23;5.30;;;;;;;-7.04;60.79;99851.98;1653791;85;21455;-64
2021/01/15 23:15:47;;;;;;;12.37;4.53;;;;;;;-7.00;60.66;99843.80;1673159;84;21058;-65
2021/01/15 23:18:17;;;;;;;16.23;5.15;;;;;;;-6.99;60.69;99843.70;1651706;85;21222;-65
2021/01/15 23:20:45;;;;;;;15.30;4.95;;;;;;;-6.96;60.45;99850.15;1651848;86;21381;-65
2021/01/15 23:23:12;;;;;;;13.75;5.33;;;;;;;-6.97;60.30;99847.59;1651742;87;21207;-64
2021/01/15 23:25:43;;;;;;;13.50;5.47;;;;;;;-7.03;60.32;99848.84;1651753;85;21887;-64
2021/01/15 23:28:11;;;;;;;11.73;4.00;;;;;;;-7.13;60.45;99845.08;1651896;85;21096;-67
2021/01/15 23:30:50;;;;;;;15.98;6.35;;;;;;;-7.20;60.60;99854.38;1651926;87;21789;-64
2021/01/15 23:33:26;;;;;;;15.53;5.72;;;;;;;-7.35;60.70;99850.89;1651923;85;21251;-63
2021/01/15 23:35:54;;;;;;;14.63;5.78;;;;;;;-7.34;61.16;99848.61;1651682;85;21060;-64
2021/01/15 23:38:23;;;;;;;13.05;5.15;;;;;;;-7.21;61.15;99858.84;1651894;85;21318;-64
2021/01/15 23:40:53;;;;;;;15.05;5.83;;;;;;;-7.14;60.89;99858.00;1651833;85;21105;-64
2021/01/15 23:43:21;;;;;;;19.80;8.50;;;;;;;-7.15;60.81;99852.30;1651793;87;21067;-63
2021/01/15 23:45:51;;;;;;;22.62;8.18;;;;;;;-7.17;60.67;99859.50;1651827;87;21084;-63
2021/01/15 23:48:21;;;;;;;24.40;9.35;;;;;;;-7.23;60.67;99860.75;1651842;87;21275;-64
2021/01/15 23:50:55;;;;;;;17.77;7.15;;;;;;;-7.24;60.89;99859.05;1651881;85;21077;-63
2021/01/15 23:53:26;;;;;;;18.55;6.53;;;;;;;-7.19;61.10;99857.42;1686486;84;21116;-63
2021/01/15 23:56:03;;;;;;;12.33;5.95;;;;;;;-7.11;61.14;99851.16;1696947;83;21434;-62
2021/01/15 23:58:31;;;;;;;16.85;5.80;;;;;;;-7.07;61.17;99842.02;1696944;83;21102;-64
